Time;durP1;ratioP1;P1;durP2;ratioP2;P2;SDS_P1;SDS_P2;PMS_P1;PMS_P2;Temp;Humidity;BMP_temperature;BMP_pressure;BME280_temperature;BME280_humidity;BME280_pressure;Samples;Min_cycle;Max_cycle;Signal;HPM_P1;HPM_P2
2022/10/23 00:01:20;;;;;;;4.47;3.10;;;;;;;;;;5036821;28;20120;-82
2022/10/23 00:03:47;;;;;;;5.68;3.10;;;;;;;;;;5031398;28;20030;-82
2022/10/23 00:06:14;;;;;;;6.22;2.55;;;;;;;;;;5029266;28;20375;-82
2022/10/23 00:08:40;;;;;;;5.22;2.85;;;;;;;;;;5034889;28;20510;-82
2022/10/23 00:11:08;;;;;;;5.25;3.13;;;;;;;;;;5036501;28;20131;-82
2022/10/23 00:13:34;;;;;;;6.38;2.85;;;;;;;;;;5049952;28;20033;-82
2022/10/23 00:16:00;;;;;;;8.05;2.95;;;;;;;;;;5010898;28;20038;-82
2022/10/23 00:18:26;;;;;;;5.60;2.70;;;;;;;;;;5027996;28;20038;-82
2022/10/23 00:20:52;;;;;;;8.02;3.15;;;;;;;;;;5035092;28;20041;-82
2022/10/23 00:23:18;;;;;;;5.00;3.00;;;;;;;;;;5049521;28;20041;-82
2022/10/23 00:25:44;;;;;;;8.00;2.92;;;;;;;;;;5052106;28;20037;-82
2022/10/23 00:28:10;;;;;;;4.65;2.45;;;;;;;;;;5034183;28;20369;-82
2022/10/23 00:30:36;;;;;;;6.82;3.38;;;;;;;;;;5034682;28;20252;-82
2022/10/23 00:33:03;;;;;;;4.25;2.35;;;;;;;;;;5033744;28;20045;-82
2022/10/23 00:35:29;;;;;;;4.32;2.67;;;;;;;;;;5046167;28;20048;-82
2022/10/23 00:37:55;;;;;;;4.95;2.60;;;;;;;;;;5038161;28;20132;-82
2022/10/23 00:40:21;;;;;;;6.70;3.38;;;;;;;;;;5034573;28;20391;-82
2022/10/23 00:42:47;;;;;;;6.57;2.85;;;;;;;;;;5038323;28;20068;-82
2022/10/23 00:45:13;;;;;;;5.13;3.17;;;;;;;;;;5050504;28;20044;-82
2022/10/23 00:47:39;;;;;;;7.07;2.78;;;;;;;;;;5033939;28;20103;-82
2022/10/23 00:50:05;;;;;;;4.90;2.75;;;;;;;;;;5045078;28;20037;-82
2022/10/23 00:52:33;;;;;;;11.07;3.40;;;;;;;;;;5019425;28;20124;-82
2022/10/23 00:54:59;;;;;;;5.03;2.80;;;;;;;;;;5034578;28;20081;-82
2022/10/23 00:57:25;;;;;;;7.60;3.17;;;;;;;;;;5033021;28;20502;-82
2022/10/23 00:59:51;;;;;;;5.00;2.90;;;;;;;;;;5032939;28;20038;-82
2022/10/23 01:02:17;;;;;;;7.03;3.00;;;;;;;;;;5029881;28;20472;-82
2022/10/23 01:04:43;;;;;;;9.38;4.10;;;;;;;;;;5026146;28;20049;-82
2022/10/23 01:07:17;;;;;;;8.27;3.80;;;;;;;;;;5017914;28;20048;-82
2022/10/23 01:10:01;;;;;;;6.97;3.60;;;;;;;;;;5018699;28;20046;-82
2022/10/23 01:12:27;;;;;;;9.27;4.38;;;;;;;;;;5030292;28;20033;-86
2022/10/23 01:14:59;;;;;;;11.52;4.18;;;;;;;;;;5019055;28;20440;-85
2022/10/23 01:17:30;;;;;;;10.45;4.68;;;;;;;;;;5033352;28;20042;-86
2022/10/23 01:19:56;;;;;;;7.65;3.60;;;;;;;;;;5008813;28;20046;-85
2022/10/23 01:22:32;;;;;;;10.18;3.63;;;;;;;;;;5033603;28;20171;-85
2022/10/23 01:25:13;;;;;;;7.40;4.38;;;;;;;;;;5018574;28;20049;-85
2022/10/23 01:27:41;;;;;;;6.90;4.30;;;;;;;;;;5033595;28;20041;-82
2022/10/23 01:30:12;;;;;;;8.38;4.72;;;;;;;;;;5024625;28;20042;-82
2022/10/23 01:32:50;;;;;;;9.93;4.90;;;;;;;;;;5033841;28;20047;-82
2022/10/23 01:35:20;;;;;;;8.88;4.93;;;;;;;;;;5035489;28;20045;-82
2022/10/23 01:37:49;;;;;;;11.70;4.82;;;;;;;;;;5032938;28;20080;-82
2022/10/23 01:40:24;;;;;;;10.50;4.30;;;;;;;;;;5015418;28;20123;-82
2022/10/23 01:42:53;;;;;;;9.73;5.20;;;;;;;;;;5033499;28;20383;-82
2022/10/23 01:45:23;;;;;;;12.35;4.88;;;;;;;;;;5033815;28;20077;-82
2022/10/23 01:47:50;;;;;;;7.45;4.03;;;;;;;;;;5015692;28;20154;-82
2022/10/23 01:50:17;;;;;;;8.85;4.30;;;;;;;;;;5031732;28;20379;-82
2022/10/23 01:52:43;;;;;;;7.43;4.10;;;;;;;;;;5032017;28;20431;-82
2022/10/23 01:55:10;;;;;;;10.05;4.30;;;;;;;;;;5031354;28;20045;-82
2022/10/23 01:57:37;;;;;;;6.78;3.38;;;;;;;;;;5033003;28;20054;-82
2022/10/23 02:00:07;;;;;;;7.75;4.03;;;;;;;;;;5031761;28;20049;-82
2022/10/23 02:02:35;;;;;;;8.75;4.60;;;;;;;;;;5032261;28;20111;-85
2022/10/23 02:05:06;;;;;;;13.27;4.18;;;;;;;;;;5031988;28;20033;-85
2022/10/23 02:07:32;;;;;;;8.98;4.65;;;;;;;;;;5032534;28;20045;-85
2022/10/23 02:09:58;;;;;;;8.88;3.65;;;;;;;;;;5033179;28;20390;-86
2022/10/23 02:12:33;;;;;;;7.20;3.80;;;;;;;;;;5032010;28;20045;-85
2022/10/23 02:15:09;;;;;;;6.70;4.40;;;;;;;;;;5033064;28;20124;-85
2022/10/23 02:17:38;;;;;;;6.13;4.00;;;;;;;;;;5032071;28;20081;-82
2022/10/23 02:20:16;;;;;;;5.93;3.35;;;;;;;;;;5008184;28;20038;-82
2022/10/23 02:22:46;;;;;;;6.38;3.88;;;;;;;;;;5031694;28;20041;-82
2022/10/23 02:25:14;;;;;;;5.45;3.42;;;;;;;;;;5019715;28;20041;-82
2022/10/23 02:27:48;;;;;;;6.53;3.85;;;;;;;;;;5031845;28;20051;-82
2022/10/23 02:30:16;;;;;;;7.13;4.15;;;;;;;;;;5032051;28;20099;-82
2022/10/23 02:32:44;;;;;;;8.27;3.75;;;;;;;;;;5032400;28;20109;-82
2022/10/23 02:35:10;;;;;;;9.98;4.10;;;;;;;;;;5041843;28;20041;-82
2022/10/23 02:37:36;;;;;;;8.88;5.03;;;;;;;;;;5021316;28;20589;-82
2022/10/23 02:40:03;;;;;;;8.88;4.13;;;;;;;;;;4999025;28;20082;-82
2022/10/23 02:42:33;;;;;;;12.05;4.60;;;;;;;;;;5031755;28;20499;-82
2022/10/23 02:45:06;;;;;;;10.43;5.07;;;;;;;;;;5009497;28;20041;-82
2022/10/23 02:47:51;;;;;;;8.10;3.83;;;;;;;;;;5014881;28;20052;-82
2022/10/23 02:50:36;;;;;;;8.48;4.03;;;;;;;;;;5031236;28;20049;-85
2022/10/23 02:53:25;;;;;;;8.07;4.13;;;;;;;;;;5032164;28;20129;-85
2022/10/23 02:56:07;;;;;;;10.73;3.95;;;;;;;;;;5032526;28;20049;-85
2022/10/23 02:58:55;;;;;;;8.52;4.10;;;;;;;;;;5031213;28;20072;-85
2022/10/23 03:01:25;;;;;;;8.73;3.83;;;;;;;;;;5021314;28;20048;-85
2022/10/23 03:03:52;;;;;;;9.93;4.55;;;;;;;;;;5032334;28;20046;-85
2022/10/23 03:06:19;;;;;;;8.77;4.20;;;;;;;;;;5030801;28;20037;-85
2022/10/23 03:08:51;;;;;;;9.88;4.10;;;;;;;;;;5027666;28;20395;-85
2022/10/23 03:11:17;;;;;;;9.40;4.68;;;;;;;;;;5031781;28;20045;-85
2022/10/23 03:13:46;;;;;;;12.85;4.68;;;;;;;;;;5062424;22;20102;-85
2022/10/23 03:16:12;;;;;;;7.15;3.88;;;;;;;;;;5069203;28;20044;-85
2022/10/23 03:18:38;;;;;;;8.85;4.90;;;;;;;;;;5070667;28;20052;-85
2022/10/23 03:21:04;;;;;;;8.88;4.95;;;;;;;;;;5071473;28;20127;-85
2022/10/23 03:23:30;;;;;;;7.30;4.50;;;;;;;;;;5054572;28;20135;-85
2022/10/23 03:25:56;;;;;;;9.23;5.28;;;;;;;;;;5038932;28;20041;-85
2022/10/23 03:28:22;;;;;;;9.73;4.35;;;;;;;;;;5054324;28;20041;-85
2022/10/23 03:30:48;;;;;;;10.90;4.32;;;;;;;;;;5071450;28;20041;-85
2022/10/23 03:33:14;;;;;;;6.10;3.70;;;;;;;;;;5071515;28;20451;-85
2022/10/23 03:35:41;;;;;;;5.72;3.38;;;;;;;;;;5035881;28;20120;-85
2022/10/23 03:38:07;;;;;;;6.70;3.78;;;;;;;;;;5061551;28;20098;-85
2022/10/23 03:40:33;;;;;;;8.25;4.00;;;;;;;;;;5070920;28;20048;-81
2022/10/23 03:42:59;;;;;;;9.15;3.70;;;;;;;;;;5053551;28;20036;-81
2022/10/23 03:45:25;;;;;;;6.45;3.60;;;;;;;;;;5069791;28;20051;-81
2022/10/23 03:47:51;;;;;;;7.18;3.88;;;;;;;;;;5068972;28;20486;-81
2022/10/23 03:50:17;;;;;;;6.20;3.65;;;;;;;;;;5070576;28;20124;-82
2022/10/23 03:52:43;;;;;;;6.65;3.75;;;;;;;;;;5070662;28;20479;-81
2022/10/23 03:55:09;;;;;;;7.78;4.13;;;;;;;;;;5053996;28;20045;-82
2022/10/23 03:57:36;;;;;;;6.63;3.60;;;;;;;;;;5071441;28;20064;-81
2022/10/23 04:00:02;;;;;;;8.07;4.57;;;;;;;;;;5072959;28;20048;-81
2022/10/23 04:02:28;;;;;;;6.18;3.90;;;;;;;;;;5074367;28;20033;-82
2022/10/23 04:04:54;;;;;;;11.07;4.45;;;;;;;;;;5074073;28;20093;-81
2022/10/23 04:07:20;;;;;;;5.80;3.30;;;;;;;;;;5074787;28;20253;-82
2022/10/23 04:09:46;;;;;;;8.88;4.30;;;;;;;;;;5075083;28;20118;-82
2022/10/23 04:12:13;;;;;;;12.50;4.15;;;;;;;;;;5074113;28;20063;-81
2022/10/23 04:14:39;;;;;;;8.57;4.05;;;;;;;;;;5058219;28;20380;-81
2022/10/23 04:17:05;;;;;;;7.00;3.47;;;;;;;;;;5073128;28;20525;-81
2022/10/23 04:19:31;;;;;;;8.63;4.43;;;;;;;;;;5074145;28;20462;-80
2022/10/23 04:21:58;;;;;;;15.15;4.53;;;;;;;;;;5039076;28;20037;-80
2022/10/23 04:24:24;;;;;;;7.22;4.25;;;;;;;;;;5071765;28;20372;-81
2022/10/23 04:26:50;;;;;;;7.40;4.68;;;;;;;;;;5046161;28;20951;-81
2022/10/23 04:29:16;;;;;;;8.57;4.85;;;;;;;;;;5057545;28;20044;-81
2022/10/23 04:31:42;;;;;;;8.00;4.20;;;;;;;;;;5074682;28;20053;-82
2022/10/23 04:34:08;;;;;;;9.05;4.53;;;;;;;;;;5056117;28;20556;-81
2022/10/23 04:36:34;;;;;;;12.63;5.78;;;;;;;;;;5073614;28;20463;-82
2022/10/23 04:39:01;;;;;;;10.65;5.88;;;;;;;;;;5073874;28;20044;-82
2022/10/23 04:41:27;;;;;;;10.32;5.20;;;;;;;;;;5057797;28;20043;-81
2022/10/23 04:43:53;;;;;;;9.82;5.78;;;;;;;;;;5056711;28;20040;-81
2022/10/23 04:46:19;;;;;;;10.77;6.32;;;;;;;;;;5073365;28;20075;-82
2022/10/23 04:48:45;;;;;;;10.55;5.38;;;;;;;;;;5066483;28;20040;-82
2022/10/23 04:51:11;;;;;;;8.55;4.90;;;;;;;;;;5071792;28;20047;-82
2022/10/23 04:53:37;;;;;;;9.85;5.93;;;;;;;;;;5056975;28;20032;-82
2022/10/23 04:56:04;;;;;;;10.10;6.00;;;;;;;;;;5074272;28;20079;-82
2022/10/23 04:58:31;;;;;;;13.40;6.35;;;;;;;;;;5072011;28;20044;-82
2022/10/23 05:00:57;;;;;;;10.15;4.72;;;;;;;;;;5072951;28;20038;-81
2022/10/23 05:03:24;;;;;;;12.82;6.35;;;;;;;;;;5055315;28;20094;-85
2022/10/23 05:05:52;;;;;;;11.48;6.10;;;;;;;;;;5056460;28;20475;-84
2022/10/23 05:08:18;;;;;;;9.80;5.30;;;;;;;;;;5055404;28;20076;-85
2022/10/23 05:10:44;;;;;;;10.73;5.20;;;;;;;;;;5056709;28;20052;-85
2022/10/23 05:13:10;;;;;;;13.60;5.63;;;;;;;;;;5073284;28;20426;-85
2022/10/23 05:15:36;;;;;;;9.25;5.30;;;;;;;;;;5050694;28;20044;-85
2022/10/23 05:18:08;;;;;;;10.98;5.85;;;;;;;;;;5073065;28;20474;-85
2022/10/23 05:20:35;;;;;;;15.55;6.22;;;;;;;;;;5073386;28;20082;-85
2022/10/23 05:23:02;;;;;;;10.77;6.57;;;;;;;;;;5056784;28;20113;-85
2022/10/23 05:25:29;;;;;;;12.60;6.97;;;;;;;;;;5056051;28;20039;-85
2022/10/23 05:27:55;;;;;;;12.50;6.03;;;;;;;;;;5057379;28;20048;-85
2022/10/23 05:30:21;;;;;;;10.10;7.45;;;;;;;;;;5055880;28;20475;-85
2022/10/23 05:32:47;;;;;;;12.02;6.00;;;;;;;;;;5073608;28;20048;-85
2022/10/23 05:35:18;;;;;;;11.50;6.53;;;;;;;;;;5055467;28;20052;-85
2022/10/23 05:37:45;;;;;;;14.27;6.22;;;;;;;;;;5071396;28;20037;-82
2022/10/23 05:40:11;;;;;;;12.15;5.72;;;;;;;;;;5071280;28;20047;-82
2022/10/23 05:42:37;;;;;;;9.38;5.55;;;;;;;;;;5071777;28;20043;-82
2022/10/23 05:45:04;;;;;;;11.02;6.47;;;;;;;;;;5071876;28;20509;-82
2022/10/23 05:47:30;;;;;;;12.38;6.30;;;;;;;;;;5054918;28;20074;-82
2022/10/23 05:49:56;;;;;;;12.48;5.22;;;;;;;;;;5070996;28;20127;-82
2022/10/23 05:52:23;;;;;;;11.25;6.07;;;;;;;;;;5053654;28;20145;-82
2022/10/23 05:54:52;;;;;;;11.05;6.28;;;;;;;;;;5072893;28;20489;-82
2022/10/23 05:57:18;;;;;;;11.80;7.10;;;;;;;;;;5072179;28;20064;-82
2022/10/23 05:59:44;;;;;;;9.10;5.45;;;;;;;;;;5056430;28;20047;-81
2022/10/23 06:02:10;;;;;;;9.90;6.20;;;;;;;;;;5071353;28;20464;-82
2022/10/23 06:04:36;;;;;;;11.88;5.45;;;;;;;;;;5071490;28;20429;-82
2022/10/23 06:07:03;;;;;;;10.55;5.70;;;;;;;;;;5055685;28;20048;-82
2022/10/23 06:09:29;;;;;;;12.10;5.93;;;;;;;;;;5072653;28;20044;-82
2022/10/23 06:11:55;;;;;;;12.07;6.10;;;;;;;;;;5071645;28;20390;-82
2022/10/23 06:14:21;;;;;;;11.85;5.97;;;;;;;;;;5071273;28;20041;-82
2022/10/23 06:16:47;;;;;;;14.73;6.57;;;;;;;;;;5072018;28;20509;-81
2022/10/23 06:19:13;;;;;;;13.45;6.50;;;;;;;;;;5070635;28;20047;-82
2022/10/23 06:21:40;;;;;;;13.63;6.78;;;;;;;;;;5075553;28;20041;-81
2022/10/23 06:24:09;;;;;;;9.82;5.47;;;;;;;;;;5078625;28;20041;-82
2022/10/23 06:26:35;;;;;;;10.65;5.90;;;;;;;;;;5078531;28;20032;-81
2022/10/23 06:29:06;;;;;;;10.98;6.28;;;;;;;;;;5079852;28;20044;-81
2022/10/23 06:31:35;;;;;;;17.30;7.40;;;;;;;;;;5080169;28;20123;-81
2022/10/23 06:34:01;;;;;;;13.40;6.65;;;;;;;;;;5063373;28;20040;-81
2022/10/23 06:36:30;;;;;;;13.27;5.85;;;;;;;;;;5082043;28;20083;-82
2022/10/23 06:39:08;;;;;;;11.00;6.15;;;;;;;;;;5049925;28;20036;-81
2022/10/23 06:41:43;;;;;;;11.40;6.18;;;;;;;;;;5062035;28;20037;-81
2022/10/23 06:44:10;;;;;;;14.23;6.82;;;;;;;;;;5060208;28;20040;-82
2022/10/23 06:46:47;;;;;;;15.18;6.32;;;;;;;;;;5060401;28;20549;-82
2022/10/23 06:49:25;;;;;;;10.95;6.13;;;;;;;;;;5059836;28;20033;-82
2022/10/23 06:51:51;;;;;;;10.85;6.25;;;;;;;;;;5076707;28;20037;-82
2022/10/23 06:54:17;;;;;;;19.33;7.28;;;;;;;;;;5071967;28;20068;-82
2022/10/23 06:56:43;;;;;;;15.88;6.28;;;;;;;;;;5070936;28;20032;-82
2022/10/23 06:59:09;;;;;;;13.60;6.10;;;;;;;;;;5055473;28;20501;-82
2022/10/23 07:01:35;;;;;;;14.50;6.32;;;;;;;;;;5072557;28;20032;-85
2022/10/23 07:04:02;;;;;;;15.10;6.18;;;;;;;;;;5054911;28;20474;-85
2022/10/23 07:06:28;;;;;;;12.45;6.65;;;;;;;;;;5053625;28;20043;-85
2022/10/23 07:08:54;;;;;;;11.88;6.18;;;;;;;;;;5069862;28;20047;-85
2022/10/23 07:11:20;;;;;;;13.07;6.47;;;;;;;;;;5070478;28;20119;-85
2022/10/23 07:13:46;;;;;;;12.23;6.78;;;;;;;;;;5069270;28;20123;-85
2022/10/23 07:16:14;;;;;;;13.60;6.03;;;;;;;;;;5070924;28;20043;-85
2022/10/23 07:18:40;;;;;;;15.07;6.70;;;;;;;;;;5067589;28;20032;-82
2022/10/23 07:21:06;;;;;;;11.88;5.55;;;;;;;;;;5071058;28;20045;-82
2022/10/23 07:23:32;;;;;;;10.75;6.18;;;;;;;;;;5071001;28;20063;-82
2022/10/23 07:26:07;;;;;;;15.30;6.25;;;;;;;;;;5054966;28;20047;-82
2022/10/23 07:28:34;;;;;;;12.67;6.23;;;;;;;;;;5071133;28;20386;-82
2022/10/23 07:31:00;;;;;;;9.70;5.95;;;;;;;;;;5068425;28;20052;-82
2022/10/23 07:33:26;;;;;;;14.48;6.30;;;;;;;;;;5075141;28;20084;-81
2022/10/23 07:35:52;;;;;;;9.23;6.00;;;;;;;;;;5056355;28;20040;-81
2022/10/23 07:38:18;;;;;;;12.48;6.90;;;;;;;;;;5061823;28;20116;-81
2022/10/23 07:40:44;;;;;;;10.20;5.63;;;;;;;;;;5074092;28;20033;-81
2022/10/23 07:43:10;;;;;;;11.88;5.63;;;;;;;;;;5075411;28;20474;-81
2022/10/23 07:45:37;;;;;;;10.02;6.50;;;;;;;;;;5075248;28;20068;-81
2022/10/23 07:48:02;;;;;;;13.10;5.53;;;11.40;99.90;;;;;;5069991;28;20470;-81
2022/10/23 07:50:28;;;;;;;10.70;6.55;;;11.40;99.90;;;;;;5056465;28;20036;-82
2022/10/23 07:52:54;;;;;;;9.80;5.32;;;11.40;99.90;;;;;;5075878;28;20044;-82
2022/10/23 07:55:20;;;;;;;13.15;6.20;;;11.40;99.90;;;;;;5059191;28;20093;-82
2022/10/23 07:57:45;;;;;;;10.48;5.13;;;11.40;99.90;;;;;;5051669;28;20384;-82
2022/10/23 08:00:11;;;;;;;10.93;6.15;;;11.50;99.90;;;;;;5039633;28;20037;-82
2022/10/23 08:02:37;;;;;;;11.75;5.30;;;11.50;99.90;;;;;;5048519;28;20128;-82
2022/10/23 08:05:03;;;;;;;10.07;5.25;;;11.50;99.90;;;;;;5069736;28;20562;-82
2022/10/23 08:07:29;;;;;;;12.40;5.80;;;11.60;99.90;;;;;;5073004;28;20032;-85
2022/10/23 08:09:55;;;;;;;11.23;6.20;;;11.60;99.90;;;;;;5058661;28;20101;-85
2022/10/23 08:12:20;;;;;;;9.43;5.43;;;11.60;99.90;;;;;;5053172;28;20045;-84
2022/10/23 08:14:46;;;;;;;10.00;5.22;;;11.70;99.90;;;;;;5038381;28;20503;-85
2022/10/23 08:17:12;;;;;;;7.65;5.25;;;11.70;99.90;;;;;;5062218;28;20112;-85
2022/10/23 08:19:37;;;;;;;17.63;5.45;;;11.70;99.90;;;;;;5072921;28;20033;-85
2022/10/23 08:22:03;;;;;;;8.60;5.35;;;11.80;99.90;;;;;;5057749;28;20043;-85
2022/10/23 08:24:29;;;;;;;11.00;5.68;;;;;;;;;;5073781;28;20032;-82
2022/10/23 08:26:55;;;;;;;10.15;5.35;;;;;;;;;;5072599;28;20406;-82
2022/10/23 08:29:21;;;;;;;9.48;5.18;;;;;;;;;;5056752;28;20041;-82
2022/10/23 08:31:48;;;;;;;9.57;5.32;;;;;;;;;;5072671;28;20041;-82
2022/10/23 08:34:14;;;;;;;12.75;6.80;;;;;;;;;;5055806;28;20043;-82
2022/10/23 08:36:41;;;;;;;12.60;5.32;;;;;;;;;;5052183;28;20047;-82
2022/10/23 08:39:07;;;;;;;9.68;6.10;;;;;;;;;;5073256;28;20055;-82
2022/10/23 08:41:38;;;;;;;8.70;5.15;;;;;;;;;;5074651;28;20542;-85
2022/10/23 08:44:04;;;;;;;10.52;5.55;;;;;;;;;;5072568;28;20072;-85
2022/10/23 08:46:32;;;;;;;12.93;5.35;;;;;;;;;;5073147;28;20043;-87
2022/10/23 08:49:39;;;;;;;11.13;4.75;;;13.00;99.90;;;;;;5071933;28;20032;-85
2022/10/23 08:52:22;;;;;;;10.63;5.03;;;12.80;99.90;;;;;;5074255;28;20501;-85
2022/10/23 08:55:06;;;;;;;9.25;4.93;;;12.90;99.90;;;;;;5073438;28;20295;-87
2022/10/23 08:57:37;;;;;;;8.02;5.07;;;13.00;99.90;;;;;;5073031;28;20032;-82
2022/10/23 09:00:11;;;;;;;11.82;4.75;;;13.10;99.90;;;;;;5074215;28;20068;-82
2022/10/23 09:02:42;;;;;;;10.05;5.07;;;;;;;;;;5058464;28;20038;-82
2022/10/23 09:05:13;;;;;;;6.68;4.18;;;;;;;;;;5068586;28;20033;-82
2022/10/23 09:08:06;;;;;;;11.93;6.15;;;;;;;;;;5073302;28;20040;-82
2022/10/23 09:10:38;;;;;;;10.10;5.28;;;;;;;;;;5056011;28;20052;-82
2022/10/23 09:13:30;;;;;;;9.40;4.78;;;;;;;;;;5064363;28;20053;-82
2022/10/23 09:16:10;;;;;;;10.00;4.63;;;;;;;;;;5068356;28;20422;-82
2022/10/23 09:18:36;;;;;;;9.13;4.85;;;14.20;99.90;;;;;;5066305;28;20025;-82
2022/10/23 09:21:08;;;;;;;9.65;4.30;;;14.10;99.90;;;;;;5073519;28;20045;-82
2022/10/23 09:23:33;;;;;;;9.07;4.95;;;14.20;99.90;;;;;;5056718;28;20036;-82
2022/10/23 09:26:01;;;;;;;8.77;4.38;;;14.30;99.90;;;;;;5072904;28;20036;-82
2022/10/23 09:28:30;;;;;;;8.15;5.28;;;14.40;99.90;;;;;;5069418;28;20046;-82
2022/10/23 09:31:13;;;;;;;11.30;4.15;;;14.40;99.90;;;;;;5072969;28;20045;-82
2022/10/23 09:33:39;;;;;;;7.38;4.10;;;14.50;99.90;;;;;;5071095;28;20044;-82
2022/10/23 09:36:12;;;;;;;7.60;4.10;;;14.70;99.90;;;;;;5072916;28;20540;-82
2022/10/23 09:38:48;;;;;;;7.43;4.05;;;14.70;99.90;;;;;;5070283;28;20119;-82
2022/10/23 09:41:22;;;;;;;;;;;14.80;99.90;;;;;;5073290;28;20052;-82
2022/10/23 09:43:59;;;;;;;6.95;3.92;;;14.90;99.90;;;;;;5069263;28;19925;-82
2022/10/23 09:46:36;;;;;;;6.88;3.72;;;15.00;99.90;;;;;;5071841;28;20032;-82
2022/10/23 09:49:02;;;;;;;7.38;3.33;;;15.10;99.90;;;;;;5051829;28;20045;-82
2022/10/23 09:51:28;;;;;;;8.88;3.72;;;15.20;99.90;;;;;;5063941;28;20028;-82
2022/10/23 09:53:58;;;;;;;11.40;3.47;;;15.30;99.90;;;;;;5051771;28;20125;-82
2022/10/23 09:56:27;;;;;;;7.47;4.00;;;15.40;99.90;;;;;;5070910;28;20079;-82
2022/10/23 09:58:59;;;;;;;5.65;3.25;;;15.40;99.90;;;;;;5069221;28;20036;-82
2022/10/23 10:01:26;;;;;;;6.43;3.45;;;;;;;;;;5068623;28;20544;-82
2022/10/23 10:03:53;;;;;;;9.65;3.38;;;;;;;;;;5071511;28;20804;-85
2022/10/23 10:06:30;;;;;;;5.18;2.65;;;;;;;;;;5070729;28;20037;-86
2022/10/23 10:08:57;;;;;;;8.30;3.30;;;;;;;;;;5055156;28;20105;-86
2022/10/23 10:11:42;;;;;;;6.82;3.55;;;;;;;;;;5071883;28;20044;-86
2022/10/23 10:14:43;;;;;;;6.90;2.85;;;15.60;99.90;;;;;;5071674;28;20053;-86
2022/10/23 10:17:26;;;;;;;5.20;3.13;;;15.70;99.90;;;;;;5065528;28;20553;-85
2022/10/23 10:19:59;;;;;;;7.72;3.13;;;;;;;;;;5063820;28;20513;-83
2022/10/23 10:22:28;;;;;;;7.53;3.30;;;;;;;;;;5072637;28;20037;-82
2022/10/23 10:25:12;;;;;;;4.47;2.60;;;;;;;;;;5072275;28;20060;-82
2022/10/23 10:27:57;;;;;;;7.00;2.88;;;;;;;;;;5055787;28;20463;-82
2022/10/23 10:30:24;;;;;;;5.57;2.47;;;;;;;;;;5072511;28;20512;-82
2022/10/23 10:33:09;;;;;;;25.75;3.15;;;;;;;;;;5072841;28;20040;-83
2022/10/23 10:35:54;;;;;;;6.00;2.67;;;;;;;;;;5071950;28;20402;-82
2022/10/23 10:38:39;;;;;;;8.23;2.85;;;;;;;;;;5073570;28;20335;-82
2022/10/23 10:41:05;;;;;;;5.00;2.97;;;;;;;;;;5063393;28;20040;-82
2022/10/23 10:43:31;;;;;;;6.30;2.25;;;;;;;;;;5072596;28;20037;-81
2022/10/23 10:46:05;;;;;;;5.20;2.65;;;;;;;;;;5055930;28;20095;-82
2022/10/23 10:48:41;;;;;;;5.68;2.45;;;;;;;;;;5056147;28;20048;-82
2022/10/23 10:51:10;;;;;;;3.58;2.03;;;;;;;;;;5071365;28;20036;-82
2022/10/23 10:53:45;;;;;;;5.07;2.47;;;;;;;;;;5072787;28;20040;-83
2022/10/23 10:56:14;;;;;;;8.20;2.00;;;;;;;;;;5071819;28;20101;-82
2022/10/23 10:58:49;;;;;;;7.85;2.38;;;;;;;;;;5071201;28;20037;-82
2022/10/23 11:01:25;;;;;;;3.03;2.03;;;;;;;;;;5069574;28;20039;-82
2022/10/23 11:03:59;;;;;;;3.95;2.05;;;;;;;;;;5070877;28;20040;-82
2022/10/23 11:06:28;;;;;;;7.95;1.95;;;;;;;;;;5069927;28;20351;-82
2022/10/23 11:08:55;;;;;;;5.57;2.20;;;;;;;;;;5071646;28;20036;-82
2022/10/23 11:11:25;;;;;;;3.90;1.77;;;;;;;;;;5054089;28;20127;-82
2022/10/23 11:13:52;;;;;;;4.07;1.83;;;;;;;;;;5069863;28;20057;-84
2022/10/23 11:16:18;;;;;;;5.35;2.22;;;;;;;;;;5056981;28;20079;-82
2022/10/23 11:18:49;;;;;;;4.70;1.95;;;;;;;;;;5074433;28;20076;-82
2022/10/23 11:21:35;;;;;;;7.07;2.80;;;;;;;;;;5073860;28;20090;-82
2022/10/23 11:24:07;;;;;;;5.38;2.78;;;;;;;;;;5073671;28;20029;-82
2022/10/23 11:26:34;;;;;;;10.18;2.80;;;;;;;;;;5074768;28;20041;-84
2022/10/23 11:29:15;;;;;;;7.43;2.50;;;;;;;;;;5075177;28;20090;-83
2022/10/23 11:31:50;;;;;;;5.75;2.03;;;;;;;;;;5073335;28;20044;-83
2022/10/23 11:34:16;;;;;;;6.03;2.37;;;;;;;;;;5073241;28;20136;-83
2022/10/23 11:36:44;;;;;;;9.45;2.50;;;;;;;;;;5074213;28;20029;-83
2022/10/23 11:39:24;;;;;;;5.20;2.35;;;;;;;;;;5074023;28;20219;-82
2022/10/23 11:41:58;;;;;;;4.55;2.47;;;;;;;;;;5073058;28;20521;-81
2022/10/23 11:44:27;;;;;;;3.95;1.77;;;;;;;;;;5073174;28;20036;-83
2022/10/23 11:47:25;;;;;;;3.95;2.10;;;;;;;;;;5073241;28;20048;-82
2022/10/23 11:49:52;;;;;;;4.38;1.77;;;;;;;;;;5039831;28;20049;-81
2022/10/23 11:52:22;;;;;;;3.72;1.80;;;;;;;;;;5073774;28;20041;-81
2022/10/23 11:54:48;;;;;;;4.28;1.73;;;;;;;;;;5074574;28;20117;-81
2022/10/23 11:57:16;;;;;;;5.03;2.10;;;;;;;;;;5073200;28;20047;-81
2022/10/23 11:59:42;;;;;;;4.43;2.00;;;;;;;;;;5064213;28;20048;-81
2022/10/23 12:02:27;;;;;;;6.97;2.10;;;;;;;;;;5056353;28;20039;-86
2022/10/23 12:04:53;;;;;;;3.17;1.80;;;;;;;;;;5074988;28;20110;-85
2022/10/23 12:07:24;;;;;;;4.78;2.28;;;;;;;;;;5069114;28;20044;-84
2022/10/23 12:10:01;;;;;;;3.88;1.60;;;;;;;;;;5071551;28;20556;-86
2022/10/23 12:12:29;;;;;;;5.57;2.47;;;;;;;;;;5072101;28;20403;-86
2022/10/23 12:15:07;;;;;;;3.13;1.90;;;;;;;;;;5060699;28;20476;-86
2022/10/23 12:17:35;;;;;;;4.95;1.83;;;;;;;;;;5069163;28;20040;-83
2022/10/23 12:20:01;;;;;;;5.60;1.92;;;;;;;;;;5077039;28;20127;-82
2022/10/23 12:22:32;;;;;;;7.22;2.13;;;;;;;;;;5075730;28;20032;-83
2022/10/23 12:25:27;;;;;;;5.90;2.10;;;;;;;;;;5075282;28;20029;-83
2022/10/23 12:27:59;;;;;;;5.07;2.30;;;;;;;;;;5005761;28;20050;-83
2022/10/23 12:30:34;;;;;;;5.47;1.75;;;;;;;;;;5060046;28;20479;-83
2022/10/23 12:33:07;;;;;;;5.85;2.20;;;;;;;;;;5074652;28;20037;-83
2022/10/23 12:35:53;;;;;;;5.53;1.90;;;;;;;;;;5073762;28;20072;-87
2022/10/23 12:38:24;;;;;;;4.47;2.00;;;;;;;;;;5066554;28;20039;-87
2022/10/23 12:40:54;;;;;;;2.80;1.67;;;;;;;;;;5048138;28;20047;-87
2022/10/23 12:43:28;;;;;;;3.17;1.77;;;;;;;;;;5053191;28;20044;-87
2022/10/23 12:45:55;;;;;;;4.32;1.70;;;;;;;;;;5057451;28;20040;-87
2022/10/23 12:48:22;;;;;;;3.08;1.80;;;;;;;;;;5059081;28;20058;-87
2022/10/23 12:50:53;;;;;;;5.45;2.28;;;;;;;;;;5074744;28;20048;-83
2022/10/23 12:53:20;;;;;;;3.78;2.40;;;;;;;;;;5074978;28;20076;-83
2022/10/23 12:55:46;;;;;;;6.03;1.90;;;;;;;;;;5072724;28;20037;-83
2022/10/23 12:58:23;;;;;;;4.78;1.88;;;;;;;;;;5052990;28;20045;-83
2022/10/23 13:00:49;;;;;;;5.38;1.70;;;;;;;;;;5073031;28;20037;-83
2022/10/23 13:03:15;;;;;;;5.47;1.80;;;;;;;;;;5075419;28;20391;-83
2022/10/23 13:05:42;;;;;;;3.60;1.88;;;;;;;;;;5073969;28;20116;-83
2022/10/23 13:08:09;;;;;;;3.63;2.00;;;;;;;;;;5072604;28;20501;-87
2022/10/23 13:10:35;;;;;;;5.60;2.00;;;;;;;;;;5054853;28;20036;-87
2022/10/23 13:13:05;;;;;;;3.45;1.88;;;;;;;;;;5072263;28;20074;-87
2022/10/23 13:15:39;;;;;;;8.00;2.00;;;;;;;;;;5058483;28;20241;-87
2022/10/23 13:18:08;;;;;;;5.45;1.65;;;;;;;;;;5054936;28;20470;-87
2022/10/23 13:20:40;;;;;;;4.38;2.10;;;;;;;;;;5072432;28;20032;-87
2022/10/23 13:23:25;;;;;;;4.20;2.10;;;;;;;;;;5068131;28;20067;-84
2022/10/23 13:25:55;;;;;;;8.15;2.72;;;;;;;;;;5072360;28;20048;-83
2022/10/23 13:28:26;;;;;;;6.28;2.25;;;;;;;;;;5057490;28;20048;-83
2022/10/23 13:30:59;;;;;;;2.20;1.60;;;;;;;;;;5072791;28;20494;-84
2022/10/23 13:33:30;;;;;;;3.20;1.90;;;;;;;;;;5074225;28;20040;-83
2022/10/23 13:36:19;;;;;;;3.55;1.75;;;;;;;;;;5073572;28;20044;-83
2022/10/23 13:38:46;;;;;;;4.32;1.83;;;;;;;;;;5054553;28;20479;-84
2022/10/23 13:41:14;;;;;;;3.72;2.10;;;;;;;;;;5055893;28;20084;-83
2022/10/23 13:43:40;;;;;;;3.72;2.40;;;;;;;;;;5074008;28;20423;-83
2022/10/23 13:46:13;;;;;;;3.30;1.70;;;;;;;;;;5073446;28;20040;-83
2022/10/23 13:48:39;;;;;;;2.53;1.48;;;;;;;;;;5073107;28;20490;-83
2022/10/23 13:51:13;;;;;;;8.77;2.28;;;;;;;;;;5061483;28;20063;-84
2022/10/23 13:53:40;;;;;;;4.68;1.63;;;;;;;;;;5043538;28;20040;-83
2022/10/23 13:56:07;;;;;;;7.63;2.13;;;;;;;;;;5073598;28;20127;-84
2022/10/23 13:58:33;;;;;;;4.75;1.80;;;;;;;;;;5073885;28;20041;-87
2022/10/23 14:00:59;;;;;;;7.03;2.33;;;;;;;;;;5073825;28;20075;-87
2022/10/23 14:03:25;;;;;;;4.20;2.55;;;;;;;;;;5056079;28;20041;-87
2022/10/23 14:05:52;;;;;;;6.88;2.08;;;;;;;;;;5055926;28;20032;-86
2022/10/23 14:08:18;;;;;;;6.15;2.72;;;;;;;;;;5073033;28;20109;-86
2022/10/23 14:10:44;;;;;;;5.82;2.22;;;;;;;;;;5056374;28;20043;-87
2022/10/23 14:13:10;;;;;;;5.10;2.10;;;;;;;;;;5073135;28;20049;-87
2022/10/23 14:15:36;;;;;;;4.38;1.98;;;;;;;;;;5074793;28;20509;-87
2022/10/23 14:18:02;;;;;;;4.38;1.92;;;;;;;;;;5054581;28;20124;-88
2022/10/23 14:20:29;;;;;;;4.07;1.90;;;;;;;;;;5053494;28;20602;-87
2022/10/23 14:22:55;;;;;;;4.47;1.73;;;;;;;;;;5069365;28;20036;-87
2022/10/23 14:25:21;;;;;;;5.82;2.05;;;;;;;;;;5073443;28;20044;-87
2022/10/23 14:27:47;;;;;;;3.67;2.00;;;;;;;;;;5073337;28;20036;-87
2022/10/23 14:30:13;;;;;;;7.57;2.10;;;;;;;;;;5056990;28;20041;-84
2022/10/23 14:32:39;;;;;;;3.60;1.77;;;;;;;;;;5072845;28;20123;-84
2022/10/23 14:35:06;;;;;;;23.60;2.08;;;;;;;;;;5073665;28;20067;-84
2022/10/23 14:37:33;;;;;;;6.78;2.17;;;;;;;;;;5055767;28;20043;-84